Time;durP1;ratioP1;P1;durP2;ratioP2;P2;SDS_P1;SDS_P2;PMS_P1;PMS_P2;Temp;Humidity;BMP_temperature;BMP_pressure;BME280_temperature;BME280_humidity;BME280_pressure;Samples;Min_cycle;Max_cycle;Signal;HPM_P1;HPM_P2
2021/09/21 00:02:08;;;;;;;8.17;6.80;;;12.70;99.90;;;;;;4929826;29;20468;-68
2021/09/21 00:04:35;;;;;;;8.80;7.90;;;12.70;99.90;;;;;;4929639;29;20473;-68
2021/09/21 00:07:02;;;;;;;8.83;7.37;;;12.70;99.90;;;;;;4929678;29;20492;-68
2021/09/21 00:09:30;;;;;;;9.10;8.17;;;12.70;99.90;;;;;;4945089;29;20491;-69
2021/09/21 00:11:57;;;;;;;8.70;7.80;;;12.70;99.90;;;;;;4943475;29;20467;-69
2021/09/21 00:14:24;;;;;;;7.97;7.17;;;12.60;99.90;;;;;;4948834;29;20476;-66
2021/09/21 00:16:51;;;;;;;8.83;8.00;;;12.70;99.90;;;;;;4948825;29;20987;-66
2021/09/21 00:19:19;;;;;;;9.00;8.10;;;12.70;99.90;;;;;;4949269;29;20491;-66
2021/09/21 00:21:46;;;;;;;9.10;7.65;;;12.70;99.90;;;;;;4948896;29;20208;-66
2021/09/21 00:24:13;;;;;;;8.25;7.45;;;12.70;99.90;;;;;;4946225;29;20212;-66
2021/09/21 00:26:41;;;;;;;9.00;8.10;;;12.60;99.90;;;;;;4947341;29;20232;-66
2021/09/21 00:29:08;;;;;;;7.13;6.43;;;12.70;99.90;;;;;;4947627;29;20498;-66
2021/09/21 00:31:38;;;;;;;6.93;6.28;;;12.70;99.90;;;;;;4947931;29;20956;-66
2021/09/21 00:34:08;;;;;;;7.70;6.80;;;12.70;99.90;;;;;;4949709;29;20243;-69
2021/09/21 00:36:36;;;;;;;7.77;6.93;;;12.60;99.90;;;;;;4949264;29;20975;-69
2021/09/21 00:39:05;;;;;;;9.87;8.00;;;12.60;99.90;;;;;;4949408;29;21011;-68
2021/09/21 00:41:33;;;;;;;9.27;8.13;;;12.60;99.90;;;;;;4948546;28;20464;-69
2021/09/21 00:44:01;;;;;;;8.38;7.57;;;12.60;99.90;;;;;;4949235;29;20472;-69
2021/09/21 00:46:28;;;;;;;8.15;7.35;;;12.70;99.90;;;;;;4948779;29;20708;-69
2021/09/21 00:48:54;;;;;;;9.90;8.40;;;12.60;99.90;;;;;;4948729;29;20232;-68
2021/09/21 00:51:23;;;;;;;9.23;8.23;;;12.60;99.90;;;;;;4948131;29;20209;-68
2021/09/21 00:53:50;;;;;;;9.05;8.15;;;12.60;99.90;;;;;;4948872;29;20566;-68
2021/09/21 00:56:17;;;;;;;10.30;7.93;;;12.60;99.90;;;;;;4948684;29;20205;-69
2021/09/21 00:58:44;;;;;;;9.18;7.90;;;12.60;99.90;;;;;;4948148;29;20491;-69
2021/09/21 01:01:12;;;;;;;9.47;8.53;;;12.60;99.90;;;;;;4948497;29;20650;-66
2021/09/21 01:03:39;;;;;;;9.33;7.90;;;12.60;99.90;;;;;;4948180;29;20468;-66
2021/09/21 01:06:06;;;;;;;9.10;7.78;;;12.60;99.90;;;;;;4948209;29;20504;-66
2021/09/21 01:08:33;;;;;;;8.53;7.73;;;12.60;99.90;;;;;;5014728;23;20229;-74
2021/09/21 01:11:00;;;;;;;8.55;7.75;;;12.60;99.90;;;;;;4950727;28;20807;-73
2021/09/21 01:13:26;;;;;;;8.45;7.63;;;12.60;99.90;;;;;;4952378;28;20204;-73
2021/09/21 01:15:53;;;;;;;8.70;7.10;;;12.60;99.90;;;;;;4953014;29;20673;-74
2021/09/21 01:18:21;;;;;;;8.40;7.60;;;12.60;99.90;;;;;;4946877;29;20496;-73
2021/09/21 01:20:48;;;;;;;8.97;8.00;;;12.50;99.90;;;;;;4933741;29;20473;-73
2021/09/21 01:23:16;;;;;;;9.50;7.10;;;12.60;99.90;;;;;;4933304;29;20599;-74
2021/09/21 01:25:43;;;;;;;8.10;7.30;;;12.60;99.90;;;;;;4933793;29;20213;-73
2021/09/21 01:28:13;;;;;;;9.43;8.53;;;12.60;99.90;;;;;;4933593;29;20493;-73
2021/09/21 01:30:40;;;;;;;8.80;8.00;;;12.60;99.90;;;;;;4933346;29;20494;-74
2021/09/21 01:33:06;;;;;;;10.13;8.30;;;12.50;99.90;;;;;;4933356;29;20469;-74
2021/09/21 01:35:33;;;;;;;8.43;7.53;;;12.50;99.90;;;;;;4933463;29;20209;-74
2021/09/21 01:38:00;;;;;;;8.60;7.80;;;12.50;99.90;;;;;;4932951;29;20488;-74
2021/09/21 01:40:28;;;;;;;9.48;8.50;;;12.50;99.90;;;;;;4933615;29;20479;-74
2021/09/21 01:42:55;;;;;;;9.00;8.10;;;12.50;99.90;;;;;;4933015;29;20212;-74
2021/09/21 01:45:21;;;;;;;8.87;7.93;;;12.50;99.90;;;;;;4933595;29;20208;-74
2021/09/21 01:47:49;;;;;;;9.35;8.13;;;12.50;99.90;;;;;;4933098;29;21001;-74
2021/09/21 01:50:40;;;;;;;9.70;8.15;;;12.50;99.90;;;;;;4933442;29;20756;-74
2021/09/21 01:53:15;;;;;;;8.77;7.72;;;12.50;99.90;;;;;;4932557;29;20209;-74
2021/09/21 01:58:48;;;;;;;8.55;7.70;;;12.50;99.90;;;;;;4933276;29;20584;-74
2021/09/21 02:01:16;;;;;;;9.67;8.30;;;12.50;99.90;;;;;;4933182;29;20287;-74
2021/09/21 02:03:43;;;;;;;11.03;7.97;;;12.50;99.90;;;;;;4933240;29;20469;-74
2021/09/21 02:06:10;;;;;;;10.33;7.90;;;12.50;99.90;;;;;;4933066;29;20465;-73
2021/09/21 02:08:37;;;;;;;9.95;8.02;;;12.50;99.90;;;;;;4933092;29;20496;-74
2021/09/21 02:11:05;;;;;;;8.82;7.93;;;12.50;99.90;;;;;;4932787;29;20700;-73
2021/09/21 02:13:32;;;;;;;9.43;7.90;;;12.50;99.90;;;;;;4932920;29;20209;-74
2021/09/21 02:15:59;;;;;;;10.73;8.07;;;12.50;99.90;;;;;;4933320;29;20472;-74
2021/09/21 02:18:26;;;;;;;11.43;8.80;;;12.50;99.90;;;;;;4933204;29;20480;-74
2021/09/21 02:20:53;;;;;;;9.87;8.87;;;12.50;99.90;;;;;;4933246;29;20209;-74
2021/09/21 02:23:20;;;;;;;8.65;7.78;;;12.50;99.90;;;;;;4932798;29;20488;-74
2021/09/21 02:25:46;;;;;;;8.40;7.45;;;12.50;99.90;;;;;;4933114;29;20205;-74
2021/09/21 02:28:15;;;;;;;10.13;8.55;;;12.50;99.90;;;;;;4932242;29;20237;-74
2021/09/21 02:30:42;;;;;;;8.73;7.93;;;12.50;99.90;;;;;;4933211;29;20312;-74
2021/09/21 02:33:09;;;;;;;8.30;7.45;;;12.40;99.90;;;;;;4932360;29;20232;-73
2021/09/21 02:35:36;;;;;;;9.48;8.48;;;12.40;99.90;;;;;;4933248;29;20606;-74
2021/09/21 02:38:03;;;;;;;9.80;8.80;;;12.50;99.90;;;;;;4932927;29;20228;-74
2021/09/21 02:40:30;;;;;;;9.40;8.50;;;12.40;99.90;;;;;;4933089;29;20556;-74
2021/09/21 02:42:57;;;;;;;8.82;7.65;;;12.50;99.90;;;;;;4932399;29;20752;-74
2021/09/21 02:45:25;;;;;;;9.05;8.15;;;12.40;99.90;;;;;;4933017;29;20265;-74
2021/09/21 02:47:52;;;;;;;10.75;9.13;;;12.40;99.90;;;;;;4932822;29;20229;-74
2021/09/21 02:50:19;;;;;;;8.98;8.07;;;12.40;99.90;;;;;;4932773;29;20213;-74
2021/09/21 02:52:45;;;;;;;8.52;7.72;;;12.40;99.90;;;;;;4932574;29;20205;-74
2021/09/21 02:55:12;;;;;;;9.47;8.57;;;12.40;99.90;;;;;;4932759;29;20700;-73
2021/09/21 02:57:39;;;;;;;10.23;9.03;;;12.40;99.90;;;;;;4932964;29;20461;-73
2021/09/21 03:00:08;;;;;;;10.37;7.70;;;12.40;99.90;;;;;;4932871;29;20847;-73
2021/09/21 03:02:37;;;;;;;9.80;8.30;;;12.40;99.90;;;;;;4932301;29;20859;-74
2021/09/21 03:05:06;;;;;;;10.37;9.30;;;12.30;99.90;;;;;;4935188;29;20555;-73
2021/09/21 03:07:37;;;;;;;10.65;8.40;;;12.30;99.90;;;;;;4936026;29;22801;-73
2021/09/21 03:18:27;;;;;;;9.70;8.70;;;12.40;99.90;;;;;;4936050;29;21015;-73
2021/09/21 03:20:54;;;;;;;9.80;8.75;;;12.40;99.90;;;;;;4936070;29;20472;-74
2021/09/21 03:23:21;;;;;;;10.25;8.85;;;12.40;99.90;;;;;;4935466;29;20692;-74
2021/09/21 03:25:48;;;;;;;10.00;9.00;;;12.40;99.90;;;;;;4935765;29;20212;-74
2021/09/21 03:28:14;;;;;;;11.37;9.27;;;12.40;99.90;;;;;;4935814;29;20496;-74
2021/09/21 03:30:41;;;;;;;9.93;8.93;;;12.40;99.90;;;;;;4935937;29;20472;-74
2021/09/21 03:33:08;;;;;;;10.50;8.98;;;12.40;99.90;;;;;;4935384;29;20216;-75
2021/09/21 03:35:36;;;;;;;8.87;8.03;;;12.40;99.90;;;;;;4935908;29;20213;-74
2021/09/21 03:38:04;;;;;;;8.90;8.00;;;12.40;99.90;;;;;;4940505;29;20477;-74
2021/09/21 03:40:31;;;;;;;9.77;8.37;;;12.40;99.90;;;;;;4945374;29;20467;-75
2021/09/21 03:42:58;;;;;;;9.20;8.30;;;12.40;99.90;;;;;;4943905;29;20520;-74
2021/09/21 03:45:26;;;;;;;8.90;7.85;;;12.40;99.90;;;;;;4944751;29;20466;-73
2021/09/21 03:47:53;;;;;;;11.23;8.38;;;12.40;99.90;;;;;;4945498;29;20275;-74
2021/09/21 03:50:20;;;;;;;9.20;8.32;;;12.30;99.90;;;;;;4944505;29;20204;-75
2021/09/21 03:52:48;;;;;;;8.57;7.70;;;12.30;99.90;;;;;;4943975;29;20668;-73
2021/09/21 03:55:16;;;;;;;11.13;9.00;;;12.30;99.90;;;;;;4945603;28;20464;-74
2021/09/21 03:57:43;;;;;;;11.32;9.15;;;12.30;99.90;;;;;;4953991;29;20700;-74
2021/09/21 04:00:11;;;;;;;11.52;9.05;;;12.30;99.90;;;;;;4954233;29;20208;-77
2021/09/21 04:02:38;;;;;;;9.97;8.87;;;12.40;99.90;;;;;;4953934;29;20196;-77
2021/09/21 04:05:06;;;;;;;9.48;8.07;;;12.30;99.90;;;;;;4954079;29;20841;-74
2021/09/21 04:07:32;;;;;;;9.02;8.10;;;12.30;99.90;;;;;;4953500;28;20223;-76
2021/09/21 04:10:00;;;;;;;9.55;8.57;;;12.30;99.90;;;;;;4953247;29;20699;-74
2021/09/21 04:12:27;;;;;;;9.23;7.93;;;12.30;99.90;;;;;;4950192;29;20205;-74
2021/09/21 04:14:54;;;;;;;10.55;8.35;;;12.30;99.90;;;;;;4942144;29;20564;-74
2021/09/21 04:17:20;;;;;;;10.27;8.05;;;12.30;99.90;;;;;;4944132;29;20255;-74
2021/09/21 04:19:47;;;;;;;11.73;8.30;;;12.30;99.90;;;;;;4940976;29;20208;-74
2021/09/21 04:22:14;;;;;;;10.82;8.82;;;12.40;99.90;;;;;;4953046;28;20204;-74
2021/09/21 04:24:41;;;;;;;11.27;8.90;;;12.30;99.90;;;;;;4949756;29;20200;-74
2021/09/21 04:27:09;;;;;;;8.75;7.80;;;12.30;99.90;;;;;;4953417;29;20492;-74
2021/09/21 04:29:36;;;;;;;11.37;9.13;;;12.30;99.90;;;;;;4953835;29;20228;-74
2021/09/21 04:32:03;;;;;;;10.10;9.07;;;12.30;99.90;;;;;;4953029;29;20472;-74
2021/09/21 04:34:31;;;;;;;9.43;8.52;;;12.30;99.90;;;;;;4953797;29;20460;-74
2021/09/21 04:36:58;;;;;;;9.70;8.80;;;12.20;99.90;;;;;;4953679;29;20672;-74
2021/09/21 04:39:26;;;;;;;9.30;8.40;;;12.20;99.90;;;;;;4953684;29;20494;-74
2021/09/21 04:41:53;;;;;;;8.93;8.00;;;12.20;99.90;;;;;;4953134;29;20468;-74
2021/09/21 04:44:21;;;;;;;9.85;8.85;;;12.20;99.90;;;;;;4953522;29;20470;-73
2021/09/21 04:46:47;;;;;;;9.07;8.17;;;12.10;99.90;;;;;;4953600;29;20578;-74
2021/09/21 04:49:14;;;;;;;11.00;9.10;;;12.10;99.90;;;;;;4953354;29;20492;-74
2021/09/21 04:51:41;;;;;;;9.40;8.40;;;12.10;99.90;;;;;;4953105;28;20475;-73
2021/09/21 04:54:08;;;;;;;12.65;9.05;;;12.10;99.90;;;;;;4953167;29;20464;-73
2021/09/21 04:56:35;;;;;;;11.60;8.80;;;12.10;99.90;;;;;;4953431;29;20212;-74
2021/09/21 04:59:02;;;;;;;11.05;8.00;;;12.00;99.90;;;;;;4953168;29;20486;-73
2021/09/21 05:01:31;;;;;;;9.82;8.82;;;12.00;99.90;;;;;;4953082;29;20691;-73
2021/09/21 05:03:58;;;;;;;9.98;8.95;;;12.00;99.90;;;;;;4952902;29;20209;-76
2021/09/21 05:06:25;;;;;;;11.40;9.25;;;12.00;99.90;;;;;;4953197;28;20220;-76
2021/09/21 05:08:52;;;;;;;11.55;8.75;;;12.00;99.90;;;;;;4953137;29;20650;-76
2021/09/21 05:11:18;;;;;;;10.63;9.60;;;12.00;99.90;;;;;;4952925;29;20735;-75
2021/09/21 05:13:45;;;;;;;9.10;8.20;;;12.00;99.90;;;;;;4952886;29;20215;-76
2021/09/21 05:16:12;;;;;;;9.25;8.35;;;11.90;99.90;;;;;;4952846;29;20460;-76
2021/09/21 05:18:40;;;;;;;9.73;8.73;;;11.90;99.90;;;;;;4953320;29;20216;-75
2021/09/21 05:21:07;;;;;;;9.98;8.85;;;11.90;99.90;;;;;;4952978;29;20466;-76
2021/09/21 05:23:34;;;;;;;10.73;9.63;;;11.90;99.90;;;;;;4952398;29;20204;-76
2021/09/21 05:26:00;;;;;;;10.48;9.18;;;11.90;99.90;;;;;;4952275;28;20577;-76
2021/09/21 05:28:27;;;;;;;9.90;8.93;;;11.90;99.90;;;;;;4952524;29;20630;-76
2021/09/21 05:30:54;;;;;;;14.18;9.77;;;11.80;99.90;;;;;;4952780;29;20212;-76
2021/09/21 05:33:20;;;;;;;10.85;9.45;;;11.80;99.90;;;;;;4952393;29;20201;-73
2021/09/21 05:35:48;;;;;;;11.80;8.60;;;11.80;99.90;;;;;;4953103;28;20576;-73
2021/09/21 05:38:16;;;;;;;11.05;9.82;;;11.80;99.90;;;;;;4952198;29;20224;-74
2021/09/21 05:40:42;;;;;;;9.40;8.50;;;11.80;99.90;;;;;;4952957;28;20215;-73
2021/09/21 05:43:09;;;;;;;10.23;9.32;;;11.80;99.90;;;;;;4951996;29;20727;-73
2021/09/21 05:45:36;;;;;;;10.88;8.95;;;11.80;99.90;;;;;;4953004;29;20614;-74
2021/09/21 05:48:03;;;;;;;10.13;9.07;;;11.70;99.90;;;;;;4952280;29;20231;-74
2021/09/21 05:50:29;;;;;;;9.77;8.50;;;11.70;99.90;;;;;;4951217;28;20201;-74
2021/09/21 05:52:58;;;;;;;9.60;8.45;;;11.80;99.90;;;;;;4948230;28;20211;-74
2021/09/21 05:55:25;;;;;;;9.90;7.70;;;11.80;99.90;;;;;;4950445;28;20207;-73
2021/09/21 05:57:52;;;;;;;11.60;8.80;;;11.80;99.90;;;;;;4948058;28;20221;-74
2021/09/21 06:00:19;;;;;;;8.82;8.00;;;11.80;99.90;;;;;;4952244;28;20215;-74
2021/09/21 06:02:46;;;;;;;9.30;8.40;;;11.80;99.90;;;;;;4951656;29;20227;-73
2021/09/21 06:05:12;;;;;;;10.43;9.00;;;11.80;99.90;;;;;;4951935;29;20577;-73
2021/09/21 06:07:47;;;;;;;10.43;9.27;;;11.80;99.90;;;;;;4951949;28;20708;-73
2021/09/21 06:10:15;;;;;;;10.02;9.10;;;11.80;99.90;;;;;;4951011;29;20211;-76
2021/09/21 06:12:42;;;;;;;9.98;8.25;;;11.80;99.90;;;;;;4951707;29;20211;-74
2021/09/21 06:15:10;;;;;;;9.52;8.52;;;11.80;99.90;;;;;;4952247;29;20235;-76
2021/09/21 06:17:37;;;;;;;10.20;8.82;;;11.80;99.90;;;;;;4935333;28;20288;-76
2021/09/21 06:20:05;;;;;;;11.13;9.25;;;11.80;99.90;;;;;;4933004;29;20205;-76
2021/09/21 06:22:32;;;;;;;8.73;7.93;;;11.80;99.90;;;;;;4932376;29;20205;-76
2021/09/21 06:24:59;;;;;;;9.85;8.82;;;11.80;99.90;;;;;;4948996;28;20208;-76
2021/09/21 06:27:27;;;;;;;9.30;8.35;;;11.80;99.90;;;;;;4951665;29;20208;-76
2021/09/21 06:29:53;;;;;;;9.50;8.60;;;11.80;99.90;;;;;;4949004;29;20196;-76
2021/09/21 06:32:20;;;;;;;8.43;7.63;;;11.80;99.90;;;;;;4951767;29;20212;-76
2021/09/21 06:34:47;;;;;;;12.95;8.80;;;11.80;99.90;;;;;;4951910;29;20212;-76
2021/09/21 06:37:14;;;;;;;9.35;8.27;;;11.80;99.90;;;;;;4951826;28;20231;-76
2021/09/21 06:39:41;;;;;;;10.15;8.70;;;11.90;99.90;;;;;;4955524;29;20667;-76
2021/09/21 06:42:08;;;;;;;9.88;8.98;;;11.90;99.90;;;;;;4954945;28;20205;-76
2021/09/21 06:44:36;;;;;;;9.65;8.73;;;12.00;99.90;;;;;;4955735;29;20212;-76
2021/09/21 06:47:03;;;;;;;9.70;8.75;;;12.00;99.90;;;;;;4954633;28;20210;-75
2021/09/21 06:49:30;;;;;;;10.13;9.23;;;12.10;99.90;;;;;;4956064;29;20685;-75
2021/09/21 06:51:57;;;;;;;9.93;8.50;;;12.10;99.90;;;;;;4955102;29;20200;-77
2021/09/21 06:54:24;;;;;;;9.93;8.70;;;12.10;99.90;;;;;;4951389;29;20885;-76
2021/09/21 06:56:51;;;;;;;11.23;8.88;;;12.10;99.90;;;;;;4948881;28;20296;-76
2021/09/21 06:59:19;;;;;;;9.73;8.73;;;12.20;99.90;;;;;;4953358;28;20299;-74
2021/09/21 07:01:48;;;;;;;9.03;8.20;;;12.30;99.90;;;;;;4934965;29;20236;-73
2021/09/21 07:04:17;;;;;;;9.10;8.07;;;12.40;99.90;;;;;;4934026;29;21016;-74
2021/09/21 07:06:45;;;;;;;13.13;10.27;;;12.60;99.90;;;;;;4935280;29;20460;-74
2021/09/21 07:09:12;;;;;;;10.73;9.63;;;12.80;99.90;;;;;;4931368;29;20500;-74
2021/09/21 07:11:39;;;;;;;10.30;8.70;;;13.00;99.90;;;;;;4930377;29;20209;-74
2021/09/21 07:14:06;;;;;;;9.70;8.70;;;13.20;99.90;;;;;;4927107;29;20848;-74
2021/09/21 07:16:33;;;;;;;10.67;9.57;;;13.30;99.90;;;;;;4929943;29;20475;-74
2021/09/21 07:19:03;;;;;;;10.30;9.13;;;13.50;99.90;;;;;;4929418;29;20485;-74
2021/09/21 07:21:30;;;;;;;9.57;7.97;;;13.70;99.90;;;;;;4929567;29;20697;-74
2021/09/21 07:23:57;;;;;;;9.73;8.83;;;13.90;99.90;;;;;;4929325;29;20475;-75
2021/09/21 07:26:24;;;;;;;8.80;8.00;;;14.10;99.90;;;;;;4929539;29;21297;-75
2021/09/21 07:28:51;;;;;;;8.10;7.40;;;14.40;99.90;;;;;;4930129;29;20493;-75
2021/09/21 07:31:18;;;;;;;10.03;9.13;;;14.40;99.90;;;;;;4929384;29;20468;-74
2021/09/21 07:33:46;;;;;;;9.47;8.07;;;14.40;99.90;;;;;;4928982;29;20468;-74
2021/09/21 07:36:14;;;;;;;9.37;7.40;;;14.20;99.90;;;;;;4929588;29;20991;-74
2021/09/21 07:38:41;;;;;;;9.93;8.83;;;14.10;99.90;;;;;;4929116;29;20488;-75
2021/09/21 07:41:08;;;;;;;8.33;7.53;;;14.00;99.90;;;;;;4929322;29;20472;-74
2021/09/21 07:43:35;;;;;;;8.53;7.50;;;13.90;99.90;;;;;;4928847;29;20469;-74
2021/09/21 07:46:01;;;;;;;9.60;8.10;;;13.80;99.90;;;;;;4929378;29;20931;-74
2021/09/21 07:48:28;;;;;;;8.17;7.37;;;13.80;99.90;;;;;;4929123;29;20493;-74
2021/09/21 07:50:56;;;;;;;9.33;8.37;;;13.70;99.90;;;;;;4929022;29;20476;-74
2021/09/21 07:53:24;;;;;;;10.40;7.37;;;13.70;99.90;;;;;;4928819;29;20467;-74
2021/09/21 07:55:51;;;;;;;9.13;8.33;;;13.70;99.90;;;;;;4929116;29;20475;-74
2021/09/21 07:58:18;;;;;;;8.53;7.73;;;13.70;99.90;;;;;;4929017;29;20989;-74
2021/09/21 08:00:46;;;;;;;8.63;7.83;;;13.70;99.90;;;;;;4929240;29;20473;-75
2021/09/21 08:03:13;;;;;;;8.40;7.53;;;13.70;99.90;;;;;;4928678;29;20528;-75
2021/09/21 08:05:40;;;;;;;8.40;7.60;;;13.70;99.90;;;;;;4928860;29;20465;-75
2021/09/21 08:08:08;;;;;;;10.57;8.00;;;13.80;99.90;;;;;;4930951;29;20539;-75
2021/09/21 08:10:36;;;;;;;9.83;8.00;;;13.90;99.90;;;;;;4934104;29;21085;-75
2021/09/21 08:13:03;;;;;;;17.30;8.37;;;14.00;99.90;;;;;;4932584;29;20973;-75
2021/09/21 08:15:31;;;;;;;11.10;7.13;;;14.00;99.90;;;;;;4933781;29;20465;-75
2021/09/21 08:17:57;;;;;;;8.60;6.63;;;14.10;99.90;;;;;;4933584;29;20525;-75
2021/09/21 08:20:25;;;;;;;9.97;7.50;;;14.20;99.90;;;;;;4934141;29;20472;-75
2021/09/21 08:22:52;;;;;;;7.37;6.30;;;14.20;99.90;;;;;;4933137;29;20464;-75
2021/09/21 08:25:19;;;;;;;7.90;7.07;;;14.30;99.90;;;;;;4933461;29;20464;-75
2021/09/21 08:27:48;;;;;;;7.23;6.53;;;14.20;99.90;;;;;;4933651;29;21079;-75
2021/09/21 08:30:17;;;;;;;7.37;6.67;;;14.30;99.90;;;;;;4933017;29;20496;-75
2021/09/21 08:32:44;;;;;;;7.53;6.80;;;14.40;99.90;;;;;;4931804;29;20488;-75
2021/09/21 08:35:11;;;;;;;7.70;6.53;;;14.50;99.90;;;;;;4933103;29;20472;-75
2021/09/21 08:37:37;;;;;;;6.77;6.17;;;14.70;99.90;;;;;;4933953;29;21044;-75
2021/09/21 08:40:05;;;;;;;6.97;6.27;;;14.90;99.90;;;;;;4933378;29;20461;-75
2021/09/21 08:42:32;;;;;;;7.57;6.80;;;15.00;99.90;;;;;;4932969;29;20469;-75
2021/09/21 08:45:00;;;;;;;7.97;6.57;;;15.20;99.90;;;;;;4933745;29;20476;-75
2021/09/21 08:47:28;;;;;;;7.80;6.87;;;15.30;99.90;;;;;;4934191;29;20480;-75
2021/09/21 08:49:55;;;;;;;7.60;6.63;;;15.50;99.90;;;;;;4934476;29;20492;-75
2021/09/21 08:52:24;;;;;;;6.77;6.17;;;15.70;99.90;;;;;;4953489;28;20502;-75
2021/09/21 08:54:51;;;;;;;8.70;6.87;;;15.90;99.90;;;;;;4971019;28;20462;-75
2021/09/21 08:57:19;;;;;;;7.27;6.40;;;16.00;99.90;;;;;;4967285;28;20541;-75
2021/09/21 08:59:52;;;;;;;7.50;6.80;;;16.20;99.90;;;;;;4952463;28;20829;-75
2021/09/21 09:02:22;;;;;;;6.73;6.13;;;16.30;99.90;;;;;;4951928;28;20507;-75
2021/09/21 09:04:58;;;;;;;8.70;6.80;;;16.50;99.90;;;;;;4952024;29;20925;-75
2021/09/21 09:07:26;;;;;;;8.60;6.10;;;16.60;99.90;;;;;;4952436;29;21051;-74
2021/09/21 09:10:01;;;;;;;6.70;6.10;;;16.80;99.90;;;;;;4952378;29;20496;-74
2021/09/21 09:12:30;;;;;;;6.57;5.97;;;17.00;99.90;;;;;;4951989;29;20475;-74
2021/09/21 09:14:57;;;;;;;7.10;5.87;;;17.20;99.90;;;;;;4951874;28;20474;-75
2021/09/21 09:17:25;;;;;;;6.33;5.73;;;17.40;99.90;;;;;;4952193;29;20471;-75
2021/09/21 09:19:52;;;;;;;7.20;6.50;;;17.60;99.90;;;;;;4952018;29;20466;-75
2021/09/21 09:22:23;;;;;;;9.10;5.77;;;17.70;99.90;;;;;;4951830;29;20464;-75
2021/09/21 09:24:51;;;;;;;6.70;6.10;;;17.60;99.90;;;;;;4952172;29;20468;-75
2021/09/21 09:27:19;;;;;;;6.77;5.87;;;17.30;99.90;;;;;;4951885;28;20511;-74
2021/09/21 09:29:56;;;;;;;6.17;5.57;;;17.00;99.90;;;;;;4951861;29;21030;-75
2021/09/21 09:32:24;;;;;;;6.13;5.63;;;16.90;99.90;;;;;;4951389;29;20464;-74
2021/09/21 09:34:52;;;;;;;6.60;6.00;;;17.00;99.90;;;;;;4951774;29;20568;-75
2021/09/21 09:37:19;;;;;;;6.80;6.20;;;17.10;99.90;;;;;;4952411;28;20460;-74
2021/09/21 09:39:47;;;;;;;6.83;6.23;;;17.20;99.90;;;;;;4952956;28;20460;-74
2021/09/21 09:42:14;;;;;;;6.00;5.50;;;17.40;99.90;;;;;;4951810;29;20468;-75
2021/09/21 09:44:42;;;;;;;6.20;5.60;;;17.40;99.90;;;;;;4951973;29;20459;-75
2021/09/21 09:47:09;;;;;;;6.17;5.67;;;17.60;99.90;;;;;;4952153;29;20892;-75
2021/09/21 09:49:39;;;;;;;6.10;5.60;;;17.80;99.90;;;;;;4951676;28;20484;-75
2021/09/21 09:52:10;;;;;;;7.43;6.37;;;17.90;99.90;;;;;;4951794;29;20455;-75
2021/09/21 09:54:38;;;;;;;7.30;5.80;;;17.90;99.90;;;;;;4942164;29;20992;-75
2021/09/21 09:57:06;;;;;;;5.90;5.30;;;17.90;99.90;;;;;;4933169;29;20484;-75
2021/09/21 09:59:33;;;;;;;6.13;5.53;;;18.10;99.90;;;;;;4932936;29;20485;-75
2021/09/21 10:02:00;;;;;;;9.73;7.50;;;18.20;99.90;;;;;;4943298;29;20472;-74
2021/09/21 10:04:27;;;;;;;15.90;10.87;;;18.50;99.90;;;;;;4935916;29;20466;-74
2021/09/21 10:06:59;;;;;;;6.20;5.70;;;18.50;99.90;;;;;;4939929;29;20473;-75
2021/09/21 10:09:26;;;;;;;10.73;7.87;;;18.70;99.90;;;;;;4932808;29;20489;-74
2021/09/21 10:11:55;;;;;;;7.27;6.37;;;18.90;99.90;;;;;;4932339;29;20465;-74
2021/09/21 10:14:23;;;;;;;7.50;6.80;;;19.00;99.90;;;;;;4935751;29;21008;-75
2021/09/21 10:16:55;;;;;;;7.97;5.90;;;19.00;99.90;;;;;;4936939;29;20471;-75
2021/09/21 10:19:23;;;;;;;6.87;6.27;;;19.10;99.90;;;;;;4937097;29;20484;-75
2021/09/21 10:21:55;;;;;;;6.53;6.03;;;19.10;99.90;;;;;;4937721;29;20847;-75
2021/09/21 10:24:32;;;;;;;6.40;5.80;;;19.30;99.90;;;;;;4937273;29;20964;-75
2021/09/21 10:27:03;;;;;;;6.60;6.10;;;19.30;99.90;;;;;;4937175;29;20464;-75
2021/09/21 10:29:30;;;;;;;7.23;6.63;;;19.40;99.90;;;;;;4937405;29;20548;-74
2021/09/21 10:31:57;;;;;;;8.20;7.20;;;19.60;99.90;;;;;;4936702;29;20835;-75
2021/09/21 10:34:24;;;;;;;6.20;5.60;;;19.80;99.90;;;;;;4936403;29;20892;-75
2021/09/21 10:36:52;;;;;;;6.47;5.90;;;19.90;99.90;;;;;;4936954;29;20468;-74
2021/09/21 10:39:22;;;;;;;7.47;6.77;;;19.90;99.90;;;;;;4936797;29;20812;-75
2021/09/21 10:41:51;;;;;;;5.67;5.17;;;20.00;99.90;;;;;;4936546;29;20919;-74
2021/09/21 10:44:18;;;;;;;6.10;5.50;;;20.10;99.90;;;;;;4936446;29;20472;-75
2021/09/21 10:46:52;;;;;;;6.77;6.17;;;20.20;99.90;;;;;;4936373;29;20469;-75
2021/09/21 10:49:30;;;;;;;6.17;5.50;;;20.20;99.90;;;;;;4937443;29;20484;-75
2021/09/21 10:52:00;;;;;;;6.30;5.80;;;20.50;99.90;;;;;;4939300;29;20476;-77
2021/09/21 10:54:34;;;;;;;5.90;5.30;;;20.90;99.90;;;;;;4939964;29;20464;-75
2021/09/21 10:57:28;;;;;;;6.60;6.00;;;21.20;99.90;;;;;;4942776;29;20457;-76
2021/09/21 10:59:58;;;;;;;6.60;6.10;;;21.30;99.90;;;;;;4953801;28;20940;-75
2021/09/21 11:02:26;;;;;;;6.77;6.23;;;21.00;99.90;;;;;;4942886;29;20460;-75
2021/09/21 11:04:53;;;;;;;6.27;5.67;;;20.70;99.90;;;;;;4946378;28;20460;-75
2021/09/21 11:07:20;;;;;;;6.87;6.23;;;20.60;99.90;;;;;;4941337;29;20463;-75
2021/09/21 11:09:53;;;;;;;5.67;5.27;;;20.70;99.90;;;;;;4953785;29;21226;-75
2021/09/21 11:12:22;;;;;;;7.20;6.50;;;20.90;99.90;;;;;;4953730;29;20460;-74
2021/09/21 11:14:51;;;;;;;7.00;6.33;;;21.00;99.90;;;;;;4939589;29;20889;-75
2021/09/21 11:17:22;;;;;;;6.33;5.80;;;21.10;99.90;;;;;;4953844;28;20888;-75
2021/09/21 11:19:51;;;;;;;5.50;5.10;;;21.00;99.90;;;;;;4950898;29;20491;-75
2021/09/21 11:22:22;;;;;;;6.50;5.90;;;21.00;99.90;;;;;;4953317;28;20466;-75
2021/09/21 11:24:50;;;;;;;6.70;6.10;;;20.70;99.90;;;;;;4952090;28;20486;-75
2021/09/21 11:27:17;;;;;;;6.13;5.60;;;20.50;99.90;;;;;;4951943;29;20621;-75
2021/09/21 11:29:44;;;;;;;7.47;6.53;;;20.10;99.90;;;;;;4935075;29;20497;-74
2021/09/21 11:32:18;;;;;;;6.67;5.77;;;19.70;99.90;;;;;;4943743;29;20809;-75
2021/09/21 11:34:46;;;;;;;7.90;5.77;;;19.20;99.90;;;;;;4953010;29;20466;-75
2021/09/21 11:37:14;;;;;;;6.90;5.60;;;18.90;99.90;;;;;;4936446;28;20461;-75
2021/09/21 11:39:40;;;;;;;6.93;6.33;;;18.50;99.90;;;;;;4933806;29;20488;-75
2021/09/21 11:42:09;;;;;;;6.40;5.67;;;18.20;99.90;;;;;;4951446;29;20463;-75
2021/09/21 11:44:40;;;;;;;9.00;6.67;;;18.00;99.90;;;;;;4953021;29;20470;-75
2021/09/21 11:47:07;;;;;;;6.87;6.27;;;17.80;99.90;;;;;;4948878;28;20456;-74
2021/09/21 11:49:34;;;;;;;6.30;5.80;;;17.60;99.90;;;;;;4949815;29;20484;-76
2021/09/21 11:52:03;;;;;;;10.13;6.57;;;17.50;99.90;;;;;;4952840;28;20464;-76
2021/09/21 11:54:33;;;;;;;6.43;5.87;;;17.40;99.90;;;;;;4935750;29;20460;-75
2021/09/21 11:56:59;;;;;;;6.10;5.60;;;17.40;99.90;;;;;;4945718;29;20524;-75
2021/09/21 11:59:28;;;;;;;6.90;6.30;;;17.40;99.90;;;;;;4952520;29;20476;-75
2021/09/21 12:01:57;;;;;;;8.20;6.40;;;17.40;99.90;;;;;;4949559;28;20482;-76
2021/09/21 12:04:23;;;;;;;6.67;6.00;;;17.40;99.90;;;;;;4952332;28;20491;-76
2021/09/21 12:06:50;;;;;;;6.23;5.63;;;17.40;99.90;;;;;;4952417;29;20468;-76
2021/09/21 12:09:18;;;;;;;6.47;5.80;;;17.40;99.90;;;;;;4952289;29;20503;-76
2021/09/21 12:11:46;;;;;;;6.47;5.87;;;17.50;99.90;;;;;;4950087;29;20552;-76
2021/09/21 12:14:16;;;;;;;9.07;6.57;;;17.60;99.90;;;;;;4949991;28;20507;-76
2021/09/21 12:16:50;;;;;;;7.47;6.77;;;17.80;99.90;;;;;;4969507;23;20505;-93
2021/09/21 12:19:22;;;;;;;6.50;5.90;;;18.00;99.90;;;;;;4984575;28;20447;-93
2021/09/21 12:21:49;;;;;;;8.53;7.17;;;18.10;99.90;;;;;;4988278;28;20462;-92
2021/09/21 12:24:16;;;;;;;6.83;6.23;;;18.40;99.90;;;;;;4981310;28;20968;-93
2021/09/21 12:26:43;;;;;;;6.93;6.33;;;18.60;99.90;;;;;;4976213;28;20484;-92
2021/09/21 12:29:10;;;;;;;7.57;6.60;;;18.80;99.90;;;;;;4978416;28;20478;-91
2021/09/21 12:31:38;;;;;;;7.20;6.50;;;19.00;99.90;;;;;;4982192;28;20509;-92
2021/09/21 12:34:13;;;;;;;7.30;5.87;;;19.20;99.90;;;;;;4981069;28;20466;-92
2021/09/21 12:36:51;;;;;;;6.70;6.10;;;19.40;99.90;;;;;;4965796;28;20487;-92
2021/09/21 12:39:23;;;;;;;6.33;5.73;;;19.40;99.90;;;;;;4977580;28;20467;-92
2021/09/21 12:41:52;;;;;;;7.27;6.57;;;19.50;99.90;;;;;;4995352;28;20530;-95
2021/09/21 12:44:21;;;;;;;9.97;7.80;;;19.60;99.90;;;;;;4996895;28;20479;-92
2021/09/21 12:46:51;;;;;;;6.47;5.87;;;19.60;99.90;;;;;;4979067;28;20862;-92
2021/09/21 12:49:21;;;;;;;14.00;6.30;;;20.00;99.90;;;;;;4976843;28;20451;-93
2021/09/21 12:51:53;;;;;;;6.90;6.40;;;20.10;99.90;;;;;;4978010;28;20440;-94
2021/09/21 12:54:21;;;;;;;8.00;7.20;;;19.80;99.90;;;;;;4977216;28;20494;-92
2021/09/21 12:56:50;;;;;;;5.90;5.33;;;19.50;99.90;;;;;;4968594;28;20487;-93
2021/09/21 12:59:20;;;;;;;6.10;5.60;;;19.30;99.90;;;;;;4973851;28;20490;-92
2021/09/21 13:01:47;;;;;;;6.70;6.10;;;19.20;99.90;;;;;;4977420;28;20613;-92